createdAt,value
2023-03-04T00:00:08.907Z,53.90
2023-03-04T00:02:59.649Z,52.00
2023-03-04T00:05:27.961Z,48.00
2023-03-04T00:07:56.004Z,47.50
2023-03-04T00:10:24.799Z,51.00
2023-03-04T00:12:52.941Z,50.10
2023-03-04T00:15:21.131Z,45.60
2023-03-04T00:17:49.323Z,42.40
2023-03-04T00:20:17.736Z,47.30
2023-03-04T00:22:45.823Z,51.50
2023-03-04T00:25:14.095Z,44.00
2023-03-04T00:27:42.227Z,47.50
2023-03-04T00:30:11.602Z,47.80
2023-03-04T00:32:39.818Z,44.70
2023-03-04T00:35:09.179Z,47.60
2023-03-04T00:37:37.485Z,55.70
2023-03-04T00:40:06.437Z,45.80
2023-03-04T00:42:34.845Z,48.90
2023-03-04T00:45:03.079Z,51.10
2023-03-04T00:47:31.705Z,52.60
2023-03-04T00:49:59.775Z,54.50
2023-03-04T00:52:28.004Z,57.10
2023-03-04T00:54:56.478Z,51.20
2023-03-04T00:57:24.628Z,53.80
2023-03-04T00:59:53.114Z,54.50
2023-03-04T01:02:21.510Z,57.10
2023-03-04T01:04:49.841Z,56.40
2023-03-04T01:07:18.723Z,57.20
2023-03-04T01:09:46.787Z,52.50
2023-03-04T01:12:15.003Z,52.60
2023-03-04T01:14:43.241Z,51.70
2023-03-04T01:17:12.539Z,51.10
2023-03-04T01:22:09.220Z,54.20
2023-03-04T01:24:38.188Z,62.40
2023-03-04T01:27:09.440Z,64.10
2023-03-04T01:29:37.787Z,62.50
2023-03-04T01:32:06.259Z,52.80
2023-03-04T01:34:34.985Z,61.90
2023-03-04T01:37:03.247Z,59.40
2023-03-04T01:39:31.452Z,51.70
2023-03-04T01:41:59.897Z,62.50
2023-03-04T01:44:28.335Z,58.20
2023-03-04T01:46:57.348Z,47.80
2023-03-04T01:49:26.080Z,43.20
2023-03-04T01:51:55.148Z,50.30
2023-03-04T01:54:23.416Z,47.20
2023-03-04T01:56:52.722Z,48.50
2023-03-04T01:59:26.524Z,38.40
2023-03-04T02:01:58.499Z,42.00
2023-03-04T02:04:33.084Z,36.90
2023-03-04T02:07:02.831Z,37.00
2023-03-04T02:09:32.590Z,41.40
2023-03-04T02:12:01.247Z,37.80
2023-03-04T02:14:29.496Z,38.20
2023-03-04T02:16:57.811Z,38.80
2023-03-04T02:19:40.291Z,35.90
2023-03-04T02:22:09.051Z,38.00
2023-03-04T02:24:45.908Z,36.30
2023-03-04T02:27:14.231Z,37.60
2023-03-04T02:29:42.597Z,46.50
2023-03-04T02:32:13.304Z,38.50
2023-03-04T02:34:47.853Z,41.50
2023-03-04T02:37:17.578Z,35.80
2023-03-04T02:39:48.340Z,34.70
2023-03-04T02:42:18.655Z,36.20
2023-03-04T02:44:49.450Z,33.40
2023-03-04T02:47:19.562Z,31.00
2023-03-04T02:49:48.581Z,33.90
2023-03-04T02:52:22.605Z,33.50
2023-03-04T02:54:50.846Z,34.90
2023-03-04T02:57:20.040Z,35.80
2023-03-04T02:59:52.114Z,39.10
2023-03-04T03:02:23.043Z,48.70
2023-03-04T03:04:52.517Z,38.30
2023-03-04T03:07:21.621Z,43.80
2023-03-04T03:09:50.026Z,39.80
2023-03-04T03:12:19.116Z,44.00
2023-03-04T03:14:47.315Z,45.90
2023-03-04T03:17:18.018Z,55.10
2023-03-04T03:19:46.122Z,44.20
2023-03-04T03:22:15.267Z,47.30
2023-03-04T03:24:44.792Z,41.50
2023-03-04T03:29:40.931Z,41.00
2023-03-04T03:32:09.363Z,54.40
2023-03-04T03:34:37.800Z,50.20
2023-03-04T03:37:05.917Z,53.60
2023-03-04T03:39:34.193Z,49.70
2023-03-04T03:42:02.218Z,45.80
2023-03-04T03:44:30.371Z,48.90
2023-03-04T03:46:58.487Z,55.50
2023-03-04T03:49:26.702Z,47.80
2023-03-04T03:51:55.088Z,45.50
2023-03-04T03:54:23.325Z,45.90
2023-03-04T03:56:51.436Z,53.70
2023-03-04T03:59:19.714Z,49.10
2023-03-04T04:01:47.797Z,49.30
2023-03-04T04:04:16.262Z,50.00
2023-03-04T04:06:44.730Z,43.60
2023-03-04T04:09:12.810Z,53.40
2023-03-04T04:11:41.087Z,49.20
2023-03-04T04:14:13.196Z,58.70
2023-03-04T04:16:41.844Z,57.00
2023-03-04T04:19:20.669Z,59.10
2023-03-04T04:21:48.946Z,55.00
2023-03-04T04:24:17.112Z,57.60
2023-03-04T04:26:45.148Z,59.60
2023-03-04T04:29:14.883Z,71.10
2023-03-04T04:31:43.173Z,72.80
2023-03-04T04:34:11.412Z,73.60
2023-03-04T04:36:39.466Z,71.50
2023-03-04T04:39:07.675Z,69.10
2023-03-04T04:41:41.791Z,76.40
2023-03-04T04:44:11.135Z,73.20
2023-03-04T04:46:39.663Z,80.50
2023-03-04T04:49:08.665Z,73.80
2023-03-04T04:51:38.591Z,78.00
2023-03-04T04:54:07.588Z,66.20
2023-03-04T04:56:35.901Z,62.90
2023-03-04T04:59:05.934Z,58.10
2023-03-04T05:01:35.077Z,63.30
2023-03-04T05:04:03.739Z,64.80
2023-03-04T05:06:32.118Z,81.80
2023-03-04T05:09:00.272Z,77.20
2023-03-04T05:11:28.712Z,68.20
2023-03-04T05:13:56.778Z,55.60
2023-03-04T05:16:24.912Z,60.40
2023-03-04T05:18:52.983Z,61.60
2023-03-04T05:21:21.064Z,72.40
2023-03-04T05:23:49.132Z,68.20
2023-03-04T05:26:18.817Z,48.50
2023-03-04T05:28:46.964Z,56.90
2023-03-04T05:31:15.421Z,51.20
2023-03-04T05:33:43.875Z,52.70
2023-03-04T05:36:12.158Z,65.30
2023-03-04T05:38:40.423Z,67.40
2023-03-04T05:41:08.686Z,62.80
2023-03-04T05:43:38.444Z,61.50
2023-03-04T05:46:06.876Z,63.70
2023-03-04T05:48:35.559Z,68.00
2023-03-04T05:51:04.043Z,65.90
2023-03-04T05:53:32.220Z,62.70
2023-03-04T05:56:00.414Z,66.50
2023-03-04T05:58:29.322Z,58.90
2023-03-04T06:01:00.630Z,52.10
2023-03-04T06:03:28.948Z,56.00
2023-03-04T06:05:57.362Z,47.00
2023-03-04T06:08:25.903Z,47.50
2023-03-04T06:10:57.315Z,43.70
2023-03-04T06:13:26.186Z,43.70
2023-03-04T06:15:56.442Z,46.80
2023-03-04T06:18:26.292Z,52.80
2023-03-04T06:21:03.244Z,46.90
2023-03-04T06:23:31.602Z,43.10
2023-03-04T06:26:01.925Z,44.80
2023-03-04T06:28:30.396Z,43.20
2023-03-04T06:30:58.548Z,40.90
2023-03-04T06:33:26.748Z,35.20
2023-03-04T06:35:57.061Z,43.60
2023-03-04T06:38:26.459Z,32.00
2023-03-04T06:40:57.284Z,32.70
2023-03-04T06:43:25.888Z,32.70
2023-03-04T06:45:54.553Z,33.60
2023-03-04T06:48:22.734Z,37.30
2023-03-04T06:50:50.865Z,35.10
2023-03-04T06:53:19.074Z,39.40
2023-03-04T06:55:48.325Z,33.60
2023-03-04T06:58:19.962Z,37.30
2023-03-04T07:00:48.027Z,31.20
2023-03-04T07:03:16.078Z,32.00
2023-03-04T07:05:44.277Z,35.20
2023-03-04T07:08:12.609Z,31.60
2023-03-04T07:10:41.000Z,35.30
2023-03-04T07:13:09.073Z,33.90
2023-03-04T07:15:38.261Z,28.20
2023-03-04T07:18:06.505Z,33.70
2023-03-04T07:20:34.679Z,39.60
2023-03-04T07:23:02.880Z,32.00
2023-03-04T07:25:30.970Z,32.00
2023-03-04T07:28:02.376Z,33.20
2023-03-04T07:30:30.488Z,36.10
2023-03-04T07:32:58.635Z,32.50
2023-03-04T07:35:26.707Z,33.60
2023-03-04T07:37:55.058Z,29.10
2023-03-04T07:40:24.194Z,27.80
2023-03-04T07:42:55.360Z,36.10
2023-03-04T07:45:24.833Z,25.30
2023-03-04T07:47:54.266Z,28.10
2023-03-04T07:50:23.549Z,32.10
2023-03-04T07:52:51.729Z,26.40
2023-03-04T07:55:20.101Z,26.00
2023-03-04T07:57:48.578Z,27.60
2023-03-04T08:00:17.902Z,26.60
2023-03-04T08:02:45.976Z,24.10
2023-03-04T08:05:15.550Z,26.30
2023-03-04T08:07:43.721Z,20.10
2023-03-04T08:10:12.165Z,23.10
2023-03-04T08:12:40.268Z,23.40
2023-03-04T08:15:09.198Z,26.00
2023-03-04T08:17:38.222Z,28.30
2023-03-04T08:20:07.253Z,26.30
2023-03-04T08:22:35.270Z,21.10
2023-03-04T08:25:04.010Z,24.60
2023-03-04T08:27:34.436Z,25.00
2023-03-04T08:30:02.771Z,22.50
2023-03-04T08:32:31.050Z,26.50
2023-03-04T08:34:59.353Z,30.70
2023-03-04T08:37:27.354Z,28.70
2023-03-04T08:39:55.630Z,43.10
2023-03-04T08:42:24.332Z,22.90
2023-03-04T08:44:52.571Z,27.20
2023-03-04T08:47:20.639Z,25.00
2023-03-04T08:49:48.848Z,25.90
2023-03-04T08:52:16.975Z,23.90
2023-03-04T08:54:45.037Z,24.70
2023-03-04T08:57:13.310Z,24.40
2023-03-04T08:59:41.463Z,24.00
2023-03-04T09:02:11.104Z,22.20
2023-03-04T09:04:39.497Z,26.60
2023-03-04T09:07:09.014Z,24.70
2023-03-04T09:09:37.215Z,23.50
2023-03-04T09:12:05.543Z,24.90
2023-03-04T09:14:35.919Z,21.40
2023-03-04T09:17:04.866Z,25.10
2023-03-04T09:22:02.160Z,22.10
2023-03-04T09:24:30.308Z,25.60
2023-03-04T09:26:58.359Z,23.20
2023-03-04T09:29:26.651Z,25.10
2023-03-04T09:31:55.205Z,24.60
2023-03-04T09:34:23.413Z,23.20
2023-03-04T09:36:51.574Z,31.90
2023-03-04T09:39:19.848Z,22.50
2023-03-04T09:41:57.959Z,23.20
2023-03-04T09:44:32.348Z,22.30
2023-03-04T09:47:04.392Z,25.90
2023-03-04T09:49:32.824Z,24.80
2023-03-04T09:52:10.282Z,24.60
2023-03-04T09:54:56.669Z,25.40
2023-03-04T09:57:30.923Z,23.90
2023-03-04T10:00:20.361Z,25.90
2023-03-04T10:03:10.138Z,27.90
2023-03-04T10:05:50.358Z,24.80
2023-03-04T10:08:24.236Z,28.70
2023-03-04T10:10:55.039Z,24.70
2023-03-04T10:13:37.074Z,24.50
2023-03-04T10:16:09.100Z,25.20
2023-03-04T10:18:42.503Z,22.30
2023-03-04T10:21:22.513Z,27.50
2023-03-04T10:23:51.190Z,25.40
2023-03-04T10:26:21.668Z,25.00
2023-03-04T10:28:50.678Z,19.60
2023-03-04T10:31:35.423Z,24.40
2023-03-04T10:34:07.212Z,20.80
2023-03-04T10:36:57.265Z,21.50
2023-03-04T10:39:29.956Z,21.30
2023-03-04T10:42:20.825Z,22.00
2023-03-04T10:45:01.007Z,19.90
2023-03-04T10:47:31.791Z,20.40
2023-03-04T10:50:03.431Z,20.20
2023-03-04T10:52:31.802Z,19.20
2023-03-04T10:55:14.907Z,18.60
2023-03-04T10:57:46.367Z,22.20
2023-03-04T11:00:17.601Z,19.20
2023-03-04T11:02:47.444Z,27.30
2023-03-04T11:05:15.914Z,21.50
2023-03-04T11:07:57.246Z,19.40
2023-03-04T11:10:25.626Z,21.00
2023-03-04T11:13:01.621Z,19.00
2023-03-04T11:15:32.562Z,22.50
2023-03-04T11:18:09.637Z,18.60
2023-03-04T11:20:42.815Z,21.50
2023-03-04T11:23:15.692Z,22.00
2023-03-04T11:26:16.487Z,21.50
2023-03-04T11:28:56.733Z,21.60
2023-03-04T11:31:39.850Z,19.60
2023-03-04T11:34:27.293Z,22.40
2023-03-04T11:36:55.455Z,17.60
2023-03-04T11:39:41.704Z,16.80
2023-03-04T11:42:32.226Z,19.10
2023-03-04T11:45:00.716Z,19.90
2023-03-04T11:47:53.239Z,21.10
2023-03-04T11:50:21.327Z,19.50
2023-03-04T11:52:55.526Z,18.30
2023-03-04T11:55:56.384Z,19.10
2023-03-04T11:58:54.887Z,17.90
2023-03-04T12:01:58.368Z,19.00
2023-03-04T12:04:29.504Z,16.70
2023-03-04T12:07:17.852Z,19.90
2023-03-04T12:10:01.207Z,17.10
2023-03-04T12:12:32.018Z,17.10
2023-03-04T12:15:20.977Z,19.00
2023-03-04T12:18:14.443Z,17.20
2023-03-04T12:20:51.223Z,18.80
2023-03-04T12:23:29.941Z,15.60
2023-03-04T12:26:08.186Z,23.50
2023-03-04T12:28:57.601Z,18.30
2023-03-04T12:31:43.620Z,19.40
2023-03-04T12:34:49.109Z,17.50
2023-03-04T12:37:54.734Z,17.70
2023-03-04T12:40:37.633Z,17.00
2023-03-04T12:43:30.788Z,16.90
2023-03-04T12:46:13.863Z,18.20
2023-03-04T12:48:50.395Z,23.80
2023-03-04T12:51:36.250Z,19.70
2023-03-04T12:54:16.368Z,16.90
2023-03-04T12:56:51.276Z,16.40
2023-03-04T12:59:22.803Z,21.10
2023-03-04T13:02:11.481Z,18.30
2023-03-04T13:05:21.198Z,17.60
2023-03-04T13:08:08.027Z,18.50
2023-03-04T13:10:36.408Z,24.20
2023-03-04T13:13:04.750Z,18.90
2023-03-04T13:15:39.595Z,22.90
2023-03-04T13:18:20.164Z,21.90
2023-03-04T13:21:06.156Z,19.10
2023-03-04T13:23:35.046Z,21.70
2023-03-04T13:26:03.121Z,23.00
2023-03-04T13:28:34.489Z,21.50
2023-03-04T13:31:11.374Z,21.30
2023-03-04T13:33:44.330Z,20.80
2023-03-04T13:36:34.628Z,20.70
2023-03-04T13:39:14.909Z,19.80
2023-03-04T13:41:48.532Z,19.90
2023-03-04T13:44:34.850Z,20.10
2023-03-04T13:47:19.029Z,18.90
2023-03-04T13:49:47.636Z,23.60
2023-03-04T13:52:39.741Z,21.40
2023-03-04T13:55:40.405Z,21.00
2023-03-04T13:58:23.147Z,24.40
2023-03-04T14:00:54.046Z,19.80
2023-03-04T14:03:28.684Z,21.50
2023-03-04T14:06:32.489Z,20.00
2023-03-04T14:09:15.024Z,20.00
2023-03-04T14:11:44.317Z,20.10
2023-03-04T14:14:18.937Z,20.50
2023-03-04T14:16:51.251Z,21.80
2023-03-04T14:19:38.700Z,23.20
2023-03-04T14:22:22.228Z,18.50
2023-03-04T14:25:19.440Z,24.10
2023-03-04T14:27:48.183Z,18.50
2023-03-04T14:30:40.767Z,20.20
2023-03-04T14:33:21.627Z,24.90
2023-03-04T14:35:53.762Z,25.50
2023-03-04T14:38:21.903Z,22.80
2023-03-04T14:41:08.118Z,28.00
2023-03-04T14:43:43.622Z,28.00
2023-03-04T14:46:15.271Z,25.50
2023-03-04T14:48:50.520Z,23.60
2023-03-04T14:51:37.796Z,18.00
2023-03-04T14:54:06.581Z,22.30
2023-03-04T14:56:36.386Z,24.50
2023-03-04T14:59:04.825Z,22.50
2023-03-04T15:01:35.646Z,23.70
2023-03-04T15:04:09.105Z,23.30
2023-03-04T15:06:40.295Z,23.70
2023-03-04T15:09:21.313Z,25.00
2023-03-04T15:12:02.190Z,21.40
2023-03-04T15:14:48.068Z,20.30
2023-03-04T15:17:38.585Z,17.10
2023-03-04T15:20:09.969Z,19.60
2023-03-04T15:22:41.001Z,22.80
2023-03-04T15:25:15.410Z,26.00
2023-03-04T15:27:45.731Z,24.20
2023-03-04T15:30:21.471Z,26.30
2023-03-04T15:32:49.984Z,23.40
2023-03-04T15:35:20.174Z,25.00
2023-03-04T15:37:50.544Z,24.60
2023-03-04T15:40:27.575Z,22.00
2023-03-04T15:42:57.837Z,25.10
2023-03-04T15:45:32.729Z,27.30
2023-03-04T15:48:00.724Z,20.90
2023-03-04T15:50:29.809Z,19.20
2023-03-04T15:55:30.232Z,25.50
2023-03-04T15:58:00.575Z,25.80
2023-03-04T16:00:31.020Z,27.60
2023-03-04T16:02:59.241Z,25.10
2023-03-04T16:05:27.507Z,29.60
2023-03-04T16:07:56.005Z,23.30
2023-03-04T16:10:30.843Z,28.40
2023-03-04T16:12:58.911Z,29.10
2023-03-04T16:15:29.872Z,28.70
2023-03-04T16:17:58.413Z,27.90
2023-03-04T16:20:29.860Z,36.30
2023-03-04T16:23:00.805Z,26.20
2023-03-04T16:25:30.336Z,27.10
2023-03-04T16:28:04.035Z,20.70
2023-03-04T16:30:32.686Z,19.60
2023-03-04T16:33:00.843Z,20.60
2023-03-04T16:35:29.716Z,15.40
2023-03-04T16:37:58.679Z,19.90
2023-03-04T16:40:29.818Z,16.70
2023-03-04T16:42:57.850Z,23.90
2023-03-04T16:45:30.308Z,24.90
2023-03-04T16:47:58.440Z,23.50
2023-03-04T16:50:30.017Z,26.60
2023-03-04T16:52:58.251Z,30.50
2023-03-04T16:55:29.018Z,31.70
2023-03-04T16:57:58.381Z,26.20
2023-03-04T17:02:58.934Z,24.90
2023-03-04T17:05:30.850Z,19.10
2023-03-04T17:07:59.156Z,20.40
2023-03-04T17:10:27.519Z,18.70
2023-03-04T17:12:55.865Z,20.70
2023-03-04T17:15:24.283Z,20.00
2023-03-04T17:17:53.172Z,22.10
2023-03-04T17:20:21.438Z,18.50
2023-03-04T17:22:50.043Z,20.70
2023-03-04T17:25:18.124Z,19.00
2023-03-04T17:27:46.110Z,20.10
2023-03-04T17:30:14.892Z,21.00
2023-03-04T17:32:43.205Z,17.10
2023-03-04T17:35:11.845Z,23.20
2023-03-04T17:37:40.688Z,18.50
2023-03-04T17:40:14.292Z,16.70
2023-03-04T17:42:42.880Z,19.10
2023-03-04T17:45:11.835Z,21.70
2023-03-04T17:47:40.042Z,20.60
2023-03-04T17:50:09.058Z,25.20
2023-03-04T17:52:37.394Z,22.50
2023-03-04T17:55:06.288Z,21.60
2023-03-04T17:57:38.161Z,20.90
2023-03-04T18:00:07.064Z,22.80
2023-03-04T18:02:35.338Z,19.30
2023-03-04T18:05:07.451Z,30.70
2023-03-04T18:07:35.872Z,20.10
2023-03-04T18:10:05.112Z,26.90
2023-03-04T18:15:01.358Z,30.70
2023-03-04T18:17:29.570Z,49.00
2023-03-04T18:19:57.660Z,40.90
2023-03-04T18:22:25.831Z,35.00
2023-03-04T18:24:54.010Z,33.10
2023-03-04T18:27:22.105Z,35.60
2023-03-04T18:29:50.246Z,27.90
2023-03-04T18:32:18.421Z,31.70
2023-03-04T18:34:46.802Z,27.70
2023-03-04T18:37:14.922Z,25.00
2023-03-04T18:39:43.157Z,30.10
2023-03-04T18:42:11.489Z,33.30
2023-03-04T18:44:39.988Z,33.10
2023-03-04T18:47:08.082Z,36.40
2023-03-04T18:49:36.348Z,38.70
2023-03-04T18:52:04.516Z,43.10
2023-03-04T18:54:32.630Z,34.10
2023-03-04T18:57:08.518Z,29.90
2023-03-04T18:59:40.303Z,34.10
2023-03-04T19:02:21.954Z,33.60
2023-03-04T19:04:51.836Z,35.90
2023-03-04T19:07:19.911Z,42.20
2023-03-04T19:09:48.146Z,47.00
2023-03-04T19:12:16.330Z,33.40
2023-03-04T19:14:44.702Z,30.70
2023-03-04T19:17:14.233Z,32.90
2023-03-04T19:19:42.585Z,32.50
2023-03-04T19:22:10.854Z,34.80
2023-03-04T19:24:39.127Z,50.90
2023-03-04T19:27:07.105Z,44.90
2023-03-04T19:29:35.295Z,51.20
2023-03-04T19:32:03.454Z,38.30
2023-03-04T19:34:31.617Z,39.30
2023-03-04T19:36:59.733Z,41.10
2023-03-04T19:39:27.826Z,31.70
2023-03-04T19:41:56.033Z,33.70
2023-03-04T19:44:24.619Z,35.90
2023-03-04T19:46:52.708Z,33.10
2023-03-04T19:49:20.890Z,35.00
2023-03-04T19:51:49.033Z,34.40
2023-03-04T19:54:17.426Z,36.60
2023-03-04T19:56:45.729Z,37.60
2023-03-04T19:59:15.906Z,28.80
2023-03-04T20:01:47.368Z,37.80
2023-03-04T20:04:18.386Z,41.90
2023-03-04T20:06:48.869Z,50.10
2023-03-04T20:09:18.237Z,52.80
2023-03-04T20:12:02.548Z,60.20
2023-03-04T20:14:33.711Z,65.60
2023-03-04T20:17:03.899Z,53.40
2023-03-04T20:19:33.843Z,56.10
2023-03-04T20:22:03.070Z,52.60
2023-03-04T20:24:31.134Z,56.90
2023-03-04T20:26:59.364Z,58.30
2023-03-04T20:29:29.016Z,39.50
2023-03-04T20:31:58.198Z,44.80
2023-03-04T20:36:55.348Z,43.20
2023-03-04T20:39:29.540Z,46.60
2023-03-04T20:41:59.079Z,35.70
2023-03-04T20:44:28.100Z,38.10
2023-03-04T20:46:56.340Z,40.10
2023-03-04T20:49:26.659Z,31.30
2023-03-04T20:52:00.275Z,30.20
2023-03-04T20:54:31.399Z,55.00
2023-03-04T20:56:59.480Z,44.40
2023-03-04T20:59:27.956Z,44.40
2023-03-04T21:01:56.167Z,51.50
2023-03-04T21:04:24.384Z,41.10
2023-03-04T21:06:53.801Z,44.20
2023-03-04T21:11:51.882Z,45.60
2023-03-04T21:14:23.134Z,45.90
2023-03-04T21:16:56.080Z,62.70
2023-03-04T21:19:30.100Z,68.60
2023-03-04T21:22:00.455Z,50.70
2023-03-04T21:24:31.429Z,60.70
2023-03-04T21:27:01.657Z,54.20
2023-03-04T21:29:29.987Z,58.50
2023-03-04T21:32:22.700Z,65.90
2023-03-04T21:34:53.315Z,68.00
2023-03-04T21:37:23.890Z,69.20
2023-03-04T21:39:53.088Z,76.60
2023-03-04T21:42:21.476Z,47.10
2023-03-04T21:44:51.451Z,59.00
2023-03-04T21:47:21.829Z,52.30
2023-03-04T21:49:50.835Z,70.30
2023-03-04T21:52:21.528Z,66.00
2023-03-04T21:54:49.869Z,64.40
2023-03-04T21:57:19.259Z,71.80
2023-03-04T22:02:18.432Z,66.80
2023-03-04T22:04:46.938Z,66.90
2023-03-04T22:07:15.114Z,73.30
2023-03-04T22:09:43.208Z,67.70
2023-03-04T22:12:11.553Z,62.70
2023-03-04T22:14:39.631Z,68.70
2023-03-04T22:17:07.952Z,59.00
2023-03-04T22:19:36.145Z,62.00
2023-03-04T22:22:04.658Z,54.10
2023-03-04T22:24:32.666Z,52.40
2023-03-04T22:27:00.805Z,65.60
2023-03-04T22:29:29.488Z,59.10
2023-03-04T22:31:57.690Z,63.60
2023-03-04T22:34:26.038Z,69.40
2023-03-04T22:36:54.242Z,57.50
2023-03-04T22:39:23.292Z,45.20
2023-03-04T22:41:51.515Z,57.70
2023-03-04T22:44:19.857Z,54.60
2023-03-04T22:46:48.175Z,61.10
2023-03-04T22:49:16.511Z,62.50
2023-03-04T22:51:45.450Z,62.40
2023-03-04T22:54:16.304Z,58.90
2023-03-04T22:56:45.277Z,66.70
2023-03-04T22:59:13.964Z,59.50
2023-03-04T23:01:42.525Z,60.00
2023-03-04T23:04:10.975Z,54.20
2023-03-04T23:06:39.152Z,59.60
2023-03-04T23:09:07.480Z,57.00
2023-03-04T23:11:36.027Z,62.10
2023-03-04T23:14:07.373Z,57.70
2023-03-04T23:16:38.676Z,61.00
2023-03-04T23:19:07.306Z,58.70
2023-03-04T23:21:37.203Z,52.40
2023-03-04T23:24:07.226Z,46.50
2023-03-04T23:26:39.061Z,56.30
2023-03-04T23:29:10.811Z,57.40
2023-03-04T23:31:38.884Z,50.60
2023-03-04T23:34:07.215Z,52.00
2023-03-04T23:36:37.900Z,46.90
2023-03-04T23:39:07.711Z,50.00
2023-03-04T23:41:36.281Z,45.10
2023-03-04T23:44:05.070Z,63.50
2023-03-04T23:46:33.448Z,55.10
2023-03-04T23:49:01.554Z,51.60
2023-03-04T23:51:30.731Z,47.40
2023-03-04T23:53:59.504Z,58.10
2023-03-04T23:56:30.025Z,58.60
2023-03-04T23:58:59.217Z,48.30
